createdAt,value
2024-02-29T00:01:08.726Z,98487.41
2024-02-29T00:04:14.787Z,98486.16
2024-02-29T00:07:24.694Z,98480.72
2024-02-29T00:10:32.731Z,98481.75
2024-02-29T00:13:42.594Z,98479.53
2024-02-29T00:16:50.369Z,98481.34
2024-02-29T00:19:57.605Z,98470.63
2024-02-29T00:23:39.031Z,98477.41
2024-02-29T00:26:52.979Z,98475.44
2024-02-29T00:37:14.308Z,98470.81
2024-02-29T00:40:25.364Z,98454.94
2024-02-29T00:47:01.299Z,98451.84
2024-02-29T00:50:17.601Z,98452.41
2024-02-29T00:53:26.008Z,98446.97
2024-02-29T00:56:34.963Z,98458.03
2024-02-29T00:59:56.601Z,98450.53
2024-02-29T01:03:05.820Z,98452.69
2024-02-29T01:06:29.667Z,98437.78
2024-02-29T01:09:40.857Z,98450.91
2024-02-29T01:12:51.716Z,98451.31
2024-02-29T01:15:57.880Z,98438.13
2024-02-29T01:19:08.140Z,98445.06
2024-02-29T01:22:17.888Z,98439.50
2024-02-29T01:25:26.786Z,98437.38
2024-02-29T01:28:46.634Z,98435.72
2024-02-29T01:31:54.576Z,98426.53
2024-02-29T01:35:00.282Z,98425.66
2024-02-29T01:38:03.208Z,98423.91
2024-02-29T01:41:06.822Z,98424.81
2024-02-29T01:44:10.938Z,98425.38
2024-02-29T01:47:14.325Z,98415.91
2024-02-29T01:50:18.037Z,98409.28
2024-02-29T01:53:20.815Z,98408.81
2024-02-29T01:56:23.716Z,98409.06
2024-02-29T01:59:29.068Z,98405.69
2024-02-29T02:02:32.046Z,98400.69
2024-02-29T02:05:35.339Z,98405.41
2024-02-29T02:08:38.273Z,98397.88
2024-02-29T02:11:41.005Z,98399.16
2024-02-29T02:14:45.825Z,98392.88
2024-02-29T02:17:51.290Z,98395.22
2024-02-29T02:20:56.245Z,98392.50
2024-02-29T02:23:59.040Z,98381.59
2024-02-29T02:27:02.088Z,98385.81
2024-02-29T02:30:08.107Z,98385.91
2024-02-29T02:33:12.029Z,98378.91
2024-02-29T02:36:16.284Z,98379.22
2024-02-29T02:39:19.296Z,98376.63
2024-02-29T02:42:22.175Z,98370.19
2024-02-29T02:45:26.030Z,98354.56
2024-02-29T02:48:29.021Z,98352.47
2024-02-29T02:51:33.325Z,98348.44
2024-02-29T02:54:36.117Z,98352.69
2024-02-29T02:57:38.912Z,98349.34
2024-02-29T03:00:41.749Z,98346.69
2024-02-29T03:03:44.692Z,98347.13
2024-02-29T03:06:48.976Z,98334.03
2024-02-29T03:09:51.839Z,98334.16
2024-02-29T03:12:54.627Z,98333.38
2024-02-29T03:15:57.532Z,98319.00
2024-02-29T03:19:00.564Z,98329.53
2024-02-29T03:22:04.737Z,98314.84
2024-02-29T03:25:08.188Z,98315.31
2024-02-29T03:28:11.393Z,98311.03
2024-02-29T03:31:15.219Z,98308.97
2024-02-29T03:34:18.147Z,98305.84
2024-02-29T03:37:22.930Z,98307.22
2024-02-29T03:40:25.694Z,98309.59
2024-02-29T03:43:28.571Z,98305.09
2024-02-29T03:46:31.400Z,98309.94
2024-02-29T03:49:34.248Z,98308.63
2024-02-29T03:52:38.290Z,98307.63
2024-02-29T03:55:41.098Z,98305.69
2024-02-29T03:58:43.937Z,98300.28
2024-02-29T04:01:50.058Z,98304.88
2024-02-29T04:04:53.317Z,98302.25
2024-02-29T04:08:01.942Z,98312.56
2024-02-29T04:11:05.466Z,98304.91
2024-02-29T04:14:08.560Z,98308.34
2024-02-29T04:17:11.433Z,98309.53
2024-02-29T04:20:14.250Z,98305.56
2024-02-29T04:23:18.641Z,98304.63
2024-02-29T04:26:21.324Z,98300.03
2024-02-29T04:29:23.944Z,98307.06
2024-02-29T04:32:26.661Z,98292.66
2024-02-29T04:35:29.356Z,98297.63
2024-02-29T04:38:33.677Z,98294.06
2024-02-29T04:41:36.310Z,98288.53
2024-02-29T04:44:39.012Z,98287.69
2024-02-29T04:47:42.049Z,98283.66
2024-02-29T04:50:44.950Z,98280.69
2024-02-29T04:53:49.212Z,98282.66
2024-02-29T04:56:51.906Z,98276.19
2024-02-29T04:59:54.653Z,98281.63
2024-02-29T05:02:57.343Z,98274.84
2024-02-29T05:06:00.083Z,98265.25
2024-02-29T05:09:04.305Z,98267.88
2024-02-29T05:12:07.523Z,98267.34
2024-02-29T05:15:10.271Z,98260.78
2024-02-29T05:18:13.192Z,98263.19
2024-02-29T05:21:15.981Z,98262.38
2024-02-29T05:24:20.013Z,98261.72
2024-02-29T05:27:22.725Z,98260.63
2024-02-29T05:30:26.567Z,98262.25
2024-02-29T05:33:29.302Z,98260.78
2024-02-29T05:36:32.971Z,98259.41
2024-02-29T05:39:37.064Z,98251.34
2024-02-29T05:42:39.797Z,98250.28
2024-02-29T05:45:42.904Z,98247.63
2024-02-29T05:48:45.565Z,98255.50
2024-02-29T05:51:51.075Z,98246.66
2024-02-29T05:55:04.065Z,98246.41
2024-02-29T05:58:11.895Z,98238.94
2024-02-29T06:01:22.548Z,98230.72
2024-02-29T06:04:50.568Z,98223.34
2024-02-29T06:08:09.624Z,98226.22
2024-02-29T06:11:20.938Z,98214.00
2024-02-29T06:14:26.728Z,98220.00
2024-02-29T06:17:34.601Z,98210.88
2024-02-29T06:20:51.428Z,98214.56
2024-02-29T06:24:01.589Z,98210.53
2024-02-29T06:27:30.616Z,98215.25
2024-02-29T06:30:41.898Z,98209.19
2024-02-29T06:33:56.830Z,98199.59
2024-02-29T06:37:06.063Z,98197.28
2024-02-29T06:40:17.675Z,98193.34
2024-02-29T06:43:42.270Z,98193.22
2024-02-29T06:46:52.743Z,98192.06
2024-02-29T06:50:21.718Z,98190.25
2024-02-29T06:53:41.210Z,98182.72
2024-02-29T06:57:02.932Z,98180.53
2024-02-29T07:00:42.584Z,98169.34
2024-02-29T07:03:55.939Z,98174.13
2024-02-29T07:07:11.313Z,98169.78
2024-02-29T07:10:30.304Z,98174.69
2024-02-29T07:13:45.947Z,98176.63
2024-02-29T07:17:55.048Z,98179.28
2024-02-29T07:21:19.139Z,98181.47
2024-02-29T07:24:38.718Z,98178.78
2024-02-29T07:27:50.082Z,98174.09
2024-02-29T07:31:00.188Z,98174.88
2024-02-29T07:34:12.964Z,98168.88
2024-02-29T07:37:51.737Z,98168.53
2024-02-29T07:41:02.621Z,98176.03
2024-02-29T07:44:31.638Z,98170.91
2024-02-29T07:47:50.839Z,98170.88
2024-02-29T07:51:21.602Z,98173.38
2024-02-29T07:54:39.639Z,98164.06
2024-02-29T07:57:52.272Z,98164.25
2024-02-29T08:01:15.477Z,98159.16
2024-02-29T08:04:29.894Z,98161.03
2024-02-29T08:19:49.980Z,98149.50
2024-02-29T08:58:38.566Z,98107.78
2024-02-29T09:30:21.415Z,98073.09
2024-02-29T09:39:00.032Z,98061.94
2024-02-29T10:09:39.113Z,97999.69
2024-02-29T10:39:23.480Z,97942.66
2024-02-29T11:45:54.241Z,97835.81
2024-02-29T11:50:14.728Z,97824.25
2024-02-29T12:01:02.832Z,97800.59
2024-02-29T12:04:13.985Z,97805.19
2024-02-29T12:07:47.349Z,97793.72
2024-02-29T12:11:30.138Z,97802.09
2024-02-29T12:18:43.458Z,97778.47
2024-02-29T12:22:25.925Z,97780.28
2024-02-29T12:30:09.896Z,97756.19
2024-02-29T12:33:34.987Z,97745.91
2024-02-29T12:37:29.832Z,97741.28
2024-02-29T12:56:58.819Z,97701.53
2024-02-29T13:04:28.821Z,97692.16
2024-02-29T13:08:13.844Z,97689.41
2024-02-29T13:11:43.091Z,97673.84
2024-02-29T13:15:30.722Z,97670.66
2024-02-29T13:19:07.918Z,97663.38
2024-02-29T13:23:33.840Z,97659.88
2024-02-29T13:39:15.590Z,97632.19
2024-02-29T13:51:35.914Z,97604.53
2024-02-29T13:55:23.919Z,97592.25
2024-02-29T13:59:15.227Z,97583.09
2024-02-29T14:03:14.174Z,97591.63
2024-02-29T14:06:48.636Z,97578.28
2024-02-29T14:14:26.147Z,97571.13
2024-02-29T14:21:49.931Z,97559.53
2024-02-29T14:29:12.684Z,97538.91
2024-02-29T14:32:41.246Z,97541.75
2024-02-29T14:36:17.771Z,97525.22
2024-02-29T14:47:53.416Z,97513.16
2024-02-29T14:51:43.607Z,97501.88
2024-02-29T14:55:23.783Z,97496.00
2024-02-29T14:58:57.180Z,97491.09
2024-02-29T15:06:24.037Z,97483.56
2024-02-29T15:10:01.481Z,97485.59
2024-02-29T15:17:54.808Z,97469.44
2024-02-29T15:21:40.727Z,97461.53
2024-02-29T15:29:20.833Z,97458.44
2024-02-29T15:33:17.035Z,97456.22
2024-02-29T15:36:45.764Z,97445.16
2024-02-29T15:45:02.864Z,97431.69
2024-02-29T15:52:26.667Z,97418.38
2024-02-29T15:56:05.923Z,97411.41
2024-02-29T16:00:12.093Z,97414.00
2024-02-29T16:12:24.862Z,97401.94
2024-02-29T16:16:16.519Z,97399.41
2024-02-29T16:20:29.629Z,97392.66
2024-02-29T16:24:28.072Z,97394.50
2024-02-29T16:27:44.986Z,97392.41
2024-02-29T16:31:24.361Z,97391.34
2024-02-29T16:34:52.870Z,97390.84
2024-02-29T16:38:16.702Z,97387.56
2024-02-29T16:42:22.930Z,97389.16
2024-02-29T16:49:30.083Z,97379.59
2024-02-29T17:00:35.622Z,97379.16
2024-02-29T17:12:18.303Z,97376.66
2024-02-29T17:15:46.489Z,97381.94
2024-02-29T17:23:11.207Z,97389.53
2024-02-29T17:27:09.751Z,97380.56
2024-02-29T17:35:03.699Z,97376.59
2024-02-29T17:43:18.335Z,97381.19
2024-02-29T17:46:54.565Z,97372.59
2024-02-29T17:54:06.177Z,97366.13
2024-02-29T17:57:49.439Z,97352.88
2024-02-29T18:14:12.495Z,97343.00
2024-02-29T18:17:40.423Z,97339.31
2024-02-29T18:21:34.768Z,97328.09
2024-02-29T18:25:34.150Z,97332.66
2024-02-29T18:29:19.293Z,97335.16
2024-02-29T18:53:43.450Z,97319.59
2024-02-29T18:57:16.237Z,97307.84
2024-02-29T19:01:39.981Z,97317.09
2024-02-29T19:34:29.890Z,97288.59
2024-02-29T19:38:28.216Z,97277.94
2024-02-29T19:51:29.973Z,97276.34
2024-02-29T19:55:14.676Z,97269.16
2024-02-29T20:03:43.163Z,97269.59
2024-02-29T20:07:37.318Z,97267.16
2024-02-29T20:16:04.153Z,97269.59
2024-02-29T20:24:08.263Z,97273.09
2024-02-29T21:24:00.190Z,97279.41
2024-02-29T22:05:00.686Z,97259.25
2024-02-29T22:31:54.270Z,97240.44
2024-02-29T22:58:07.691Z,97231.59
2024-02-29T23:18:06.522Z,97205.81
2024-02-29T23:21:35.729Z,97210.91
2024-02-29T23:32:26.649Z,97203.09
2024-02-29T23:49:34.798Z,97191.63
2024-02-29T23:53:22.832Z,97191.09
2024-02-29T23:57:46.832Z,97190.28
